Cardinal — V7IB3 — position and weather

sailwx.info

Track history (hours):
 
Tides and Currents Weather Stations Pressure Air Temp Water Temp Dewpoint Dewpoint Depression Visibility Wind Speed Wind Dir Waves Ship Positions

Cardinal

Last reported at 2015-Jul-02 20:28 UTC. Time now 2015-Jul-02 21:33 UTC.
Position N 36°25' E 016°07'.

Length 191 m; draft 11.5 m.

Type: Cargo ship. MMSI: 538002349.

Date/timePositionNaut miles runAvg speedWind from/ knotsBaromVisibWave heightAir tempDewpointWater temp
2015-Jul-02 20:28N 36°25' E 016°07'1414.0
2015-Jul-02 19:27N 36°27' E 015°49'1514.0
2015-Jul-02 18:22N 36°29' E 015°31'1113.3
2015-Jul-02 17:33N 36°30' E 015°17'1313.1
2015-Jul-02 16:33N 36°32' E 015°01'1313.3
2015-Jul-02 15:33N 36°34' E 014°45'1413.5
2015-Jul-02 14:33N 36°36' E 014°28'1313.2
2015-Jul-02 13:33N 36°38' E 014°12'1313.4
2015-Jul-02 12:33N 36°40' E 013°55'1414.0
2015-Jul-02 11:33N 36°42' E 013°38'1413.8
2015-Jul-02 10:34N 36°44' E 013°21'1413.7
2015-Jul-02 09:33N 36°46' E 013°04'1713.5
2015-Jul-02 08:17N 36°49' E 012°43'1013.8
2015-Jul-02 07:34N 36°51' E 012°31'1313.4
2015-Jul-02 06:34N 36°54' E 012°15'1413.5
2015-Jul-02 05:33N 37°01' E 011°60'1413.4
2015-Jul-02 04:33N 37°07' E 011°45'1313.4
2015-Jul-02 03:33N 37°14' E 011°30'1413.6
2015-Jul-02 02:33N 37°20' E 011°15'1414.1
2015-Jul-02 01:33N 37°26' E 010°59'1514.5
2015-Jul-02 00:33N 37°30' E 010°41'1414.3
2015-Jul-01 23:33N 37°33' E 010°24'1414.1
2015-Jul-01 22:33N 37°34' E 010°06'1413.7
2015-Jul-01 21:33N 37°37' E 009°49'1313.5
2015-Jul-01 20:33N 37°42' E 009°33'1313.2
2015-Jul-01 19:33N 37°47' E 009°18'1312.8
2015-Jul-01 18:34N 37°51' E 009°02'1312.7
2015-Jul-01 17:33N 37°49' E 008°46'1312.4
2015-Jul-01 16:33N 37°48' E 008°31'1212.1
2015-Jul-01 15:33N 37°47' E 008°16'1212.4
2015-Jul-01 14:33N 37°45' E 008°00'1312.7
2015-Jul-01 13:33N 37°44' E 007°44'1313.0
2015-Jul-01 12:33N 37°43' E 007°28'1513.1
2015-Jul-01 11:22N 37°41' E 007°08'1112.9
2015-Jul-01 10:33N 37°40' E 006°55'1312.6
2015-Jul-01 09:32N 37°38' E 006°39'1212.4
2015-Jul-01 08:32N 37°37' E 006°23'1212.6
2015-Jul-01 07:33N 37°36' E 006°08'1312.9
2015-Jul-01 06:33N 37°34' E 005°52'1313.2
2015-Jul-01 05:33N 37°33' E 005°35'1313.2
2015-Jul-01 04:33N 37°31' E 005°19'1413.6
2015-Jul-01 03:33N 37°30' E 005°02'1413.6
2015-Jul-01 02:33N 37°28' E 004°45'1313.4
2015-Jul-01 01:34N 37°25' E 004°28'1313.3
2015-Jul-01 00:33N 37°22' E 004°12'1313.0
2015-Jun-30 23:33N 37°20' E 003°56'1313.3
2015-Jun-30 22:33N 37°18' E 003°39'1313.4
2015-Jun-30 21:34N 37°15' E 003°23'1413.5
2015-Jun-30 20:33N 37°12' E 003°06'1313.2
2015-Jun-30 19:34N 37°10' E 002°50'1313.0
2015-Jun-30 18:33N 37°07' E 002°34'1312.9
2015-Jun-30 17:33N 37°05' E 002°18'1313.1
2015-Jun-30 16:33N 37°02' E 002°02'1312.9
2015-Jun-30 15:33N 36°59' E 001°46'1312.8
2015-Jun-30 14:33N 36°57' E 001°30'1312.7
2015-Jun-30 13:33N 36°54' E 001°15'1313.1
2015-Jun-30 12:33N 36°52' E 000°59'1413.4
2015-Jun-30 11:33N 36°49' E 000°42'1313.6
2015-Jun-30 10:33N 36°47' E 000°26'1413.5
2015-Jun-30 09:33N 36°44' E 000°09'1313.1
2015-Jun-30 08:34N 36°41' W 000°07'1313.0
2015-Jun-30 07:33N 36°39' W 000°23'1312.7
2015-Jun-30 06:33N 36°36' W 000°38'1312.7
2015-Jun-30 05:33N 36°34' W 000°54'1312.7
2015-Jun-30 04:33N 36°32' W 001°10'1312.7
2015-Jun-30 03:33N 36°29' W 001°25'1312.6
2015-Jun-30 02:33N 36°27' W 001°40'1212.4
2015-Jun-30 01:33N 36°24' W 001°56'1312.6
2015-Jun-30 00:33N 36°22' W 002°11'1412.9
2015-Jun-29 23:30N 36°20' W 002°28'1212.9
2015-Jun-29 22:33N 36°18' W 002°43'1513.2
2015-Jun-29 21:23N 36°16' W 003°02'1313.1
2015-Jun-29 20:23N 36°14' W 003°18'16838.8
2015-Jun-29 16:03N 36°01' W 006°45'2 3.9
2015-Jun-29 15:31N 36°01' W 006°48'4 4.1
2015-Jun-29 14:33N 36°03' W 006°53'8173.7
2015-Jun-29 13:26N 36°00' W 005°12'1315.1
2015-Jun-29 12:33N 35°57' W 005°28'7857.8
2015-Jun-29 11:12N 36°05' W 007°05'2 3.6
2015-Jun-29 10:32N 36°06' W 007°08'3 3.5
2015-Jun-29 09:33N 36°07' W 007°12'4 3.6
2015-Jun-29 08:33N 36°08' W 007°16'4 3.3
2015-Jun-29 07:30N 36°09' W 007°20'3 3.1
2015-Jun-29 06:33N 36°09' W 007°24'3 3.1
2015-Jun-29 05:33N 36°10' W 007°27'7 7.5
2015-Jun-29 04:33N 36°12' W 007°36'1312.8
2015-Jun-29 03:34N 36°15' W 007°52'1513.2
2015-Jun-29 02:26N 36°19' W 008°09'1213.6
2015-Jun-29 01:33N 36°22' W 008°24'1413.5
2015-Jun-29 00:33N 36°26' W 008°40'1212.5
2015-Jun-28 23:33N 36°29' W 008°55'1312.7
2015-Jun-28 22:33N 36°32' W 009°10'1312.6
2015-Jun-28 21:34N 36°39' W 009°23'1312.5
2015-Jun-28 20:33N 36°49' W 009°33'1313.1
2015-Jun-28 19:33N 37°02' W 009°37'1313.2
2015-Jun-28 18:33N 37°15' W 009°40'1313.3
2015-Jun-28 17:33N 37°28' W 009°44'1313.5
2015-Jun-28 16:33N 37°41' W 009°48'1413.7
2015-Jun-28 15:33N 37°54' W 009°52'1414.0
2015-Jun-28 14:33N 38°08' W 009°56'1413.7
2015-Jun-28 13:33N 38°21' W 009°59'1313.5
2015-Jun-28 12:33N 38°34' W 010°03'1313.4
2015-Jun-28 11:33N 38°47' W 010°06'1313.5
2015-Jun-28 10:33N 39°01' W 010°06'1313.3
2015-Jun-28 09:33N 39°14' W 010°06'1413.6
2015-Jun-28 08:33N 39°28' W 010°07'1313.4
2015-Jun-28 07:33N 39°41' W 010°08'1313.4
2015-Jun-28 06:33N 39°55' W 010°08'1313.4
2015-Jun-28 05:33N 40°08' W 010°06'1413.7
2015-Jun-28 04:33N 40°22' W 010°06'1413.6
2015-Jun-28 03:30N 40°36' W 010°06'4013.4
2015-Jun-28 00:30N 41°16' W 010°06'56112.5
2015-Jun-26 03:33N 49°35' W 004°01'2612.8
2015-Jun-26 01:32N 49°47' W 003°25'2612.8
2015-Jun-25 23:28N 50°00' W 002°50'1213.6
2015-Jun-25 22:33N 50°04' W 002°31'1514.3
2015-Jun-25 21:31N 50°08' W 002°09'1415.1
2015-Jun-25 20:33N 50°12' W 001°47'1515.3
2015-Jun-25 19:33N 50°16' W 001°24'1715.0
2015-Jun-25 18:26N 50°21' W 000°59'1313.8
2015-Jun-25 17:28N 50°25' W 000°39'1213.0
2015-Jun-25 16:32N 50°28' W 000°21'1312.5
2015-Jun-25 15:30N 50°32' W 000°01'1212.2
2015-Jun-25 14:31N 50°36' E 000°17'1212.6
2015-Jun-25 13:34N 50°39' E 000°35'1313.3
2015-Jun-25 12:34N 50°46' E 000°53'1414.3
2015-Jun-25 11:34N 50°55' E 001°10'1414.4
2015-Jun-25 10:33N 51°05' E 001°28'1313.2
2015-Jun-25 09:33N 51°13' E 001°44'1212.5
2015-Jun-25 08:33N 51°22' E 001°57'1110.7
2015-Jun-25 07:33N 51°21' E 002°14'1311.3
2015-Jun-25 06:27N 51°23' E 002°34'9 9.9
2015-Jun-25 05:33N 51°22' E 002°48'1010.2
2015-Jun-25 04:33N 51°24' E 003°04'1010.6
2015-Jun-25 03:33N 51°24' E 003°21'10 9.9
2015-Jun-25 02:33N 51°26' E 003°37'9 9.1
2015-Jun-25 01:33N 51°21' E 003°49'9 9.2
2015-Jun-25 00:33N 51°25' E 004°02'8 8.1
2015-Jun-24 23:33N 51°22' E 004°14'6 6.1
2015-Jun-24 22:33N 51°16' E 004°17'0 0.4
2015-Jun-24 21:33N 51°16' E 004°16'1 1.1
2015-Jun-24 20:33N 51°16' E 004°15'0 0.0
2015-Jun-24 19:33N 51°16' E 004°15'0 0.0
2015-Jun-24 18:33N 51°16' E 004°15'0 0.0
2015-Jun-24 17:33N 51°16' E 004°15'0 0.0
2015-Jun-24 16:33N 51°16' E 004°15'0 0.0
2015-Jun-24 15:33N 51°16' E 004°15'0 0.0
2015-Jun-24 14:33N 51°16' E 004°15'0 0.0
2015-Jun-24 13:33N 51°16' E 004°15'0 0.0
2015-Jun-24 12:33N 51°16' E 004°15'0 0.0
2015-Jun-24 11:33N 51°16' E 004°15'0 0.0
2015-Jun-24 10:33N 51°16' E 004°15'0 0.0
2015-Jun-24 09:33N 51°16' E 004°15'0 0.0
2015-Jun-24 08:33N 51°16' E 004°15'0 0.0
2015-Jun-24 07:33N 51°16' E 004°15'0 0.0
2015-Jun-24 06:33N 51°16' E 004°15'0 0.0
2015-Jun-24 05:33N 51°16' E 004°15'0 0.0
2015-Jun-24 04:33N 51°16' E 004°15'0 0.0
2015-Jun-24 03:34N 51°16' E 004°15'0 0.0
2015-Jun-24 02:33N 51°16' E 004°15'0 0.0
2015-Jun-24 01:33N 51°16' E 004°15'0 0.0
2015-Jun-24 00:33N 51°16' E 004°15'0 0.0
2015-Jun-23 23:33N 51°16' E 004°15'0 0.0
2015-Jun-23 22:33N 51°16' E 004°15'0 0.0
2015-Jun-23 21:33N 51°16' E 004°15'0 0.0
2015-Jun-23 20:33N 51°16' E 004°15'0 0.0
2015-Jun-23 19:33N 51°16' E 004°15'0 0.0
2015-Jun-23 19:06N 51°16' E 004°15'  
Track history (hours):
 
Tides and Currents Weather Stations Pressure Air Temp Water Temp Dewpoint Dewpoint Depression Visibility Wind Speed Wind Dir Waves Ship Positions

Cardinal

Last reported at 2015-Jul-02 20:28 UTC. Time now 2015-Jul-02 21:33 UTC.
Position N 36°25' E 016°07'.

Length 191 m; draft 11.5 m.

Type: Cargo ship. MMSI: 538002349.

Date/timePositionNaut miles runAvg speedWind from/ knotsBaromVisibWave heightAir tempDewpointWater temp
2015-Jul-02 20:28N 36°25' E 016°07'1414.0
2015-Jul-02 19:27N 36°27' E 015°49'1514.0
2015-Jul-02 18:22N 36°29' E 015°31'1113.3
2015-Jul-02 17:33N 36°30' E 015°17'1313.1
2015-Jul-02 16:33N 36°32' E 015°01'1313.3
2015-Jul-02 15:33N 36°34' E 014°45'1413.5
2015-Jul-02 14:33N 36°36' E 014°28'1313.2
2015-Jul-02 13:33N 36°38' E 014°12'1313.4
2015-Jul-02 12:33N 36°40' E 013°55'1414.0
2015-Jul-02 11:33N 36°42' E 013°38'1413.8
2015-Jul-02 10:34N 36°44' E 013°21'1413.7
2015-Jul-02 09:33N 36°46' E 013°04'1713.5
2015-Jul-02 08:17N 36°49' E 012°43'1013.8
2015-Jul-02 07:34N 36°51' E 012°31'1313.4
2015-Jul-02 06:34N 36°54' E 012°15'1413.5
2015-Jul-02 05:33N 37°01' E 011°60'1413.4
2015-Jul-02 04:33N 37°07' E 011°45'1313.4
2015-Jul-02 03:33N 37°14' E 011°30'1413.6
2015-Jul-02 02:33N 37°20' E 011°15'1414.1
2015-Jul-02 01:33N 37°26' E 010°59'1514.5
2015-Jul-02 00:33N 37°30' E 010°41'1414.3
2015-Jul-01 23:33N 37°33' E 010°24'1414.1
2015-Jul-01 22:33N 37°34' E 010°06'1413.7
2015-Jul-01 21:33N 37°37' E 009°49'1313.5
2015-Jul-01 20:33N 37°42' E 009°33'1313.2
2015-Jul-01 19:33N 37°47' E 009°18'1312.8
2015-Jul-01 18:34N 37°51' E 009°02'1312.7
2015-Jul-01 17:33N 37°49' E 008°46'1312.4
2015-Jul-01 16:33N 37°48' E 008°31'1212.1
2015-Jul-01 15:33N 37°47' E 008°16'1212.4
2015-Jul-01 14:33N 37°45' E 008°00'1312.7
2015-Jul-01 13:33N 37°44' E 007°44'1313.0
2015-Jul-01 12:33N 37°43' E 007°28'1513.1
2015-Jul-01 11:22N 37°41' E 007°08'1112.9
2015-Jul-01 10:33N 37°40' E 006°55'1312.6
2015-Jul-01 09:32N 37°38' E 006°39'1212.4
2015-Jul-01 08:32N 37°37' E 006°23'1212.6
2015-Jul-01 07:33N 37°36' E 006°08'1312.9
2015-Jul-01 06:33N 37°34' E 005°52'1313.2
2015-Jul-01 05:33N 37°33' E 005°35'1313.2
2015-Jul-01 04:33N 37°31' E 005°19'1413.6
2015-Jul-01 03:33N 37°30' E 005°02'1413.6
2015-Jul-01 02:33N 37°28' E 004°45'1313.4
2015-Jul-01 01:34N 37°25' E 004°28'1313.3
2015-Jul-01 00:33N 37°22' E 004°12'1313.0
2015-Jun-30 23:33N 37°20' E 003°56'1313.3
2015-Jun-30 22:33N 37°18' E 003°39'1313.4
2015-Jun-30 21:34N 37°15' E 003°23'1413.5
2015-Jun-30 20:33N 37°12' E 003°06'1313.2
2015-Jun-30 19:34N 37°10' E 002°50'1313.0
2015-Jun-30 18:33N 37°07' E 002°34'1312.9
2015-Jun-30 17:33N 37°05' E 002°18'1313.1
2015-Jun-30 16:33N 37°02' E 002°02'1312.9
2015-Jun-30 15:33N 36°59' E 001°46'1312.8
2015-Jun-30 14:33N 36°57' E 001°30'1312.7
2015-Jun-30 13:33N 36°54' E 001°15'1313.1
2015-Jun-30 12:33N 36°52' E 000°59'1413.4
2015-Jun-30 11:33N 36°49' E 000°42'1313.6
2015-Jun-30 10:33N 36°47' E 000°26'1413.5
2015-Jun-30 09:33N 36°44' E 000°09'1313.1
2015-Jun-30 08:34N 36°41' W 000°07'1313.0
2015-Jun-30 07:33N 36°39' W 000°23'1312.7
2015-Jun-30 06:33N 36°36' W 000°38'1312.7
2015-Jun-30 05:33N 36°34' W 000°54'1312.7
2015-Jun-30 04:33N 36°32' W 001°10'1312.7
2015-Jun-30 03:33N 36°29' W 001°25'1312.6
2015-Jun-30 02:33N 36°27' W 001°40'1212.4
2015-Jun-30 01:33N 36°24' W 001°56'1312.6
2015-Jun-30 00:33N 36°22' W 002°11'1412.9
2015-Jun-29 23:30N 36°20' W 002°28'1212.9
2015-Jun-29 22:33N 36°18' W 002°43'1513.2
2015-Jun-29 21:23N 36°16' W 003°02'1313.1
2015-Jun-29 20:23N 36°14' W 003°18'16838.8
2015-Jun-29 16:03N 36°01' W 006°45'2 3.9
2015-Jun-29 15:31N 36°01' W 006°48'4 4.1
2015-Jun-29 14:33N 36°03' W 006°53'8173.7
2015-Jun-29 13:26N 36°00' W 005°12'1315.1
2015-Jun-29 12:33N 35°57' W 005°28'7857.8
2015-Jun-29 11:12N 36°05' W 007°05'2 3.6
2015-Jun-29 10:32N 36°06' W 007°08'3 3.5
2015-Jun-29 09:33N 36°07' W 007°12'4 3.6
2015-Jun-29 08:33N 36°08' W 007°16'4 3.3
2015-Jun-29 07:30N 36°09' W 007°20'3 3.1
2015-Jun-29 06:33N 36°09' W 007°24'3 3.1
2015-Jun-29 05:33N 36°10' W 007°27'7 7.5
2015-Jun-29 04:33N 36°12' W 007°36'1312.8
2015-Jun-29 03:34N 36°15' W 007°52'1513.2
2015-Jun-29 02:26N 36°19' W 008°09'1213.6
2015-Jun-29 01:33N 36°22' W 008°24'1413.5
2015-Jun-29 00:33N 36°26' W 008°40'1212.5
2015-Jun-28 23:33N 36°29' W 008°55'1312.7
2015-Jun-28 22:33N 36°32' W 009°10'1312.6
2015-Jun-28 21:34N 36°39' W 009°23'1312.5
2015-Jun-28 20:33N 36°49' W 009°33'1313.1
2015-Jun-28 19:33N 37°02' W 009°37'1313.2
2015-Jun-28 18:33N 37°15' W 009°40'1313.3
2015-Jun-28 17:33N 37°28' W 009°44'1313.5
2015-Jun-28 16:33N 37°41' W 009°48'1413.7
2015-Jun-28 15:33N 37°54' W 009°52'1414.0
2015-Jun-28 14:33N 38°08' W 009°56'1413.7
2015-Jun-28 13:33N 38°21' W 009°59'1313.5
2015-Jun-28 12:33N 38°34' W 010°03'1313.4
2015-Jun-28 11:33N 38°47' W 010°06'1313.5
2015-Jun-28 10:33N 39°01' W 010°06'1313.3
2015-Jun-28 09:33N 39°14' W 010°06'1413.6
2015-Jun-28 08:33N 39°28' W 010°07'1313.4
2015-Jun-28 07:33N 39°41' W 010°08'1313.4
2015-Jun-28 06:33N 39°55' W 010°08'1313.4
2015-Jun-28 05:33N 40°08' W 010°06'1413.7
2015-Jun-28 04:33N 40°22' W 010°06'1413.6
2015-Jun-28 03:30N 40°36' W 010°06'4013.4
2015-Jun-28 00:30N 41°16' W 010°06'56112.5
2015-Jun-26 03:33N 49°35' W 004°01'2612.8
2015-Jun-26 01:32N 49°47' W 003°25'2612.8
2015-Jun-25 23:28N 50°00' W 002°50'1213.6
2015-Jun-25 22:33N 50°04' W 002°31'1514.3
2015-Jun-25 21:31N 50°08' W 002°09'1415.1
2015-Jun-25 20:33N 50°12' W 001°47'1515.3
2015-Jun-25 19:33N 50°16' W 001°24'1715.0
2015-Jun-25 18:26N 50°21' W 000°59'1313.8
2015-Jun-25 17:28N 50°25' W 000°39'1213.0
2015-Jun-25 16:32N 50°28' W 000°21'1312.5
2015-Jun-25 15:30N 50°32' W 000°01'1212.2
2015-Jun-25 14:31N 50°36' E 000°17'1212.6
2015-Jun-25 13:34N 50°39' E 000°35'1313.3
2015-Jun-25 12:34N 50°46' E 000°53'1414.3
2015-Jun-25 11:34N 50°55' E 001°10'1414.4
2015-Jun-25 10:33N 51°05' E 001°28'1313.2
2015-Jun-25 09:33N 51°13' E 001°44'1212.5
2015-Jun-25 08:33N 51°22' E 001°57'1110.7
2015-Jun-25 07:33N 51°21' E 002°14'1311.3
2015-Jun-25 06:27N 51°23' E 002°34'9 9.9
2015-Jun-25 05:33N 51°22' E 002°48'1010.2
2015-Jun-25 04:33N 51°24' E 003°04'1010.6
2015-Jun-25 03:33N 51°24' E 003°21'10 9.9
2015-Jun-25 02:33N 51°26' E 003°37'9 9.1
2015-Jun-25 01:33N 51°21' E 003°49'9 9.2
2015-Jun-25 00:33N 51°25' E 004°02'8 8.1
2015-Jun-24 23:33N 51°22' E 004°14'6 6.1
2015-Jun-24 22:33N 51°16' E 004°17'0 0.4
2015-Jun-24 21:33N 51°16' E 004°16'1 1.1
2015-Jun-24 20:33N 51°16' E 004°15'0 0.0
2015-Jun-24 19:33N 51°16' E 004°15'0 0.0
2015-Jun-24 18:33N 51°16' E 004°15'0 0.0
2015-Jun-24 17:33N 51°16' E 004°15'0 0.0
2015-Jun-24 16:33N 51°16' E 004°15'0 0.0
2015-Jun-24 15:33N 51°16' E 004°15'0 0.0
2015-Jun-24 14:33N 51°16' E 004°15'0 0.0
2015-Jun-24 13:33N 51°16' E 004°15'0 0.0
2015-Jun-24 12:33N 51°16' E 004°15'0 0.0
2015-Jun-24 11:33N 51°16' E 004°15'0 0.0
2015-Jun-24 10:33N 51°16' E 004°15'0 0.0
2015-Jun-24 09:33N 51°16' E 004°15'0 0.0
2015-Jun-24 08:33N 51°16' E 004°15'0 0.0
2015-Jun-24 07:33N 51°16' E 004°15'0 0.0
2015-Jun-24 06:33N 51°16' E 004°15'0 0.0
2015-Jun-24 05:33N 51°16' E 004°15'0 0.0
2015-Jun-24 04:33N 51°16' E 004°15'0 0.0
2015-Jun-24 03:34N 51°16' E 004°15'0 0.0
2015-Jun-24 02:33N 51°16' E 004°15'0 0.0
2015-Jun-24 01:33N 51°16' E 004°15'0 0.0
2015-Jun-24 00:33N 51°16' E 004°15'0 0.0
2015-Jun-23 23:33N 51°16' E 004°15'0 0.0
2015-Jun-23 22:33N 51°16' E 004°15'0 0.0
2015-Jun-23 21:33N 51°16' E 004°15'0 0.0
2015-Jun-23 20:33N 51°16' E 004°15'0 0.0
2015-Jun-23 19:33N 51°16' E 004°15'0 0.0
2015-Jun-23 19:06N 51°16' E 004°15'  

Dump ship's entire track history